Tiempo atmosférico en la estación meteorológica de Villalón De Campos, Valladolid (763 m.)



Fecha
DESCASC
Temp. máxima en grados centígrados (hora)
DESCASC
Temp. mínima en grados centígrados (hora)
DESCASC
Temp. media en grados centígrados
DESCASC
Racha de viento máxima en m/sg (hora)
DESCASC
Velocidad máxima media en intervalos de 10 minutos(hora)
DESCASC
Precipitaciones diarias en mm
DESCASC
Precipitaciones de 00:00 a 06:00 en mm
DESCASC
Precipitaciones de 06:00 a 12:00 en mm
DESCASC
Precipitaciones de 12:00 a 18:00 en mm
DESCASC
Precipitaciones de 18:00 a 24:00 en mm
DESCASC
22-04-2019 18.5 (18:40) 2.7 (06:40) 10.6 9.72 (23:59) 6.94 (23:59) 0 0 0 0 0
21-04-2019 17.6 (16:10) 5.4 (07:40) 11.5 11.67 (15:50) 6.67 (15:50) 0 0 0 0 0
20-04-2019 20.7 (17:00) 9 (06:50) 14.9 16.39 (14:10) 8.89 (18:20) 0 0 0 0 0
19-04-2019 13.8 (18:20) 7.4 (07:50) 10.6 13.89 (15:20) 6.67 (15:10) 2.6 2.6 0 0 0
18-04-2019 11.1 (11:50) 7 (00:00) 9.1 7.22 (16:00) 4.17 (21:00) 3.6 1.6 0 1.8 0.2
17-04-2019 21.1 (17:00) 5.8 (00:00) 13.5 15.56 (21:10) 9.17 (21:10) 0 0 0 0 0
16-04-2019 20 (18:50) 0.1 (00:00) 10.1 8.61 (14:50) 3.89 (00:10) 0 0 0 0 0
15-04-2019 20.8 (13:20) 6.4 (00:00) 13.6 20 (17:10) 13.33 (16:20) 0.6 0 0 0.6 0
14-04-2019 21.8 (17:10) 8.3 (00:00) 15 7.22 (19:40) 5.56 (19:40) 0 0 0 0 0
13-04-2019 20.4 (18:20) 0.7 (00:00) 10.5 7.5 (17:00) 4.72 (19:00) 0 0 0 0 0
12-04-2019 16.9 (19:40) -1.1 (06:40) 7.9 5.56 (14:00) 3.06 (14:00) 0 0 0 0 0
11-04-2019 16.1 (17:50) -1.6 (-00:0) 7.3 6.39 (13:30) 4.17 (14:10) 0 0 0 0 0
10-04-2019 12.7 (16:50) 1.8 (00:00) 7.2 8.33 (19:00) 4.72 (19:00) 1.4 0 1.2 0.2 0
09-04-2019 11.8 (16:50) 2.7 (00:00) 7.3 14.17 (13:10) 10 (18:30) 3.4 0 2.8 0.6 0
08-04-2019 13.7 (15:10) 3.6 (00:00) 8.6 13.89 (20:10) 9.17 (20:20) 0.6 0.4 0.2 0 0
07-04-2019 12 (15:20) -0.9 (-00:0) 5.6 15 (16:10) 8.89 (16:50) 3.6 0 0 0 3.6
06-04-2019 9.4 (15:30) 0.9 (00:00) 5.1 21.67 (15:10) 12.22 (16:10) 2.6 0 1 1.6 0
05-04-2019 10.7 (18:20) 1.8 (00:00) 6.2 12.5 (17:10) 9.17 (19:40) 1.2 0.8 0.4 0 0
04-04-2019 11.6 (16:10) -3.6 (-00:0) 4 14.72 (17:10) 9.44 (18:00) 2.4 0 0 0 2.4
03-04-2019 11 (15:30) -0.5 (23:30) 5.3 14.17 (15:20) 9.17 (15:40) 0 0 0 0 0
02-04-2019 18.7 (16:00) 4.4 (00:00) 11.6 11.39 (21:10) 6.67 (21:20) 0 0 0 0 0
01-04-2019 19.5 (18:30) 1.8 (00:00) 10.6 6.39 (17:50) 2.78 (16:00) 0 0 0 0 0
31-03-2019 19.6 (17:20) 5.6 (00:00) 12.6 8.89 (14:50) 5 (20:50) 0 0 0 0 0
30-03-2019 20.3 (15:40) 2.2 (00:00) 11.2 5.28 (15:10) 3.61 (22:50) 0 0 0 0 0
29-03-2019 20.4 (17:30) 1.6 (00:00) 11 8.33 (14:00) 4.44 (14:00) 0 0 0 0 0
28-03-2019 18.4 (17:10) 2.3 (00:00) 10.3 13.33 (11:00) 6.11 (11:00) 0 0 0 0 0
27-03-2019 18.1 (16:40) 1.6 (00:00) 9.9 13.61 (15:10) 6.67 (16:00) 0 0 0 0 0
26-03-2019 16.3 (15:20) 3 (00:00) 9.6 18.33 (12:10) 8.89 (12:10) 0 0 0 0 0
25-03-2019 14.6 (15:20) 2.5 (00:00) 8.6 13.89 (17:20) 7.5 (17:10) 0 0 0 0 0

Gráficas

Temp. máximas Temp. mínimas Temp. medias Precipitaciones Rachas de viento máximas Velocidades máximas media en intervalos de 10 minutos

Datos horarios

Fecha y hora oficial Temperatura (ºC) Velocidad del viento (km/h) Dirección del viento Racha (km/h) Dirección de racha Precipitación (mm) Presión (hPa) Tendencia (hPa) Humedad (%)
2019-04-23 23:00:00 3.8 18 Sudoeste 41 Sudoeste 0 -- -- 88
2019-04-23 22:00:00 5 22 Sudoeste 35 Sudoeste 0 -- -- 83
2019-04-23 21:00:00 6.1 20 Sudoeste 36 Sudoeste 0 -- -- 76
2019-04-23 20:00:00 7.6 23 Oeste 36 Oeste 0 -- -- 67
2019-04-23 19:00:00 9.6 23 Oeste 46 Noroeste 0 -- -- 59
2019-04-23 18:00:00 9.5 36 Noroeste 54 Oeste 0 -- -- 64
2019-04-23 17:00:00 12.4 35 Sudoeste 48 Sudoeste 0 -- -- 50
2019-04-23 16:00:00 12.8 23 Sudoeste 40 Sudoeste 0 -- -- 46
2019-04-23 15:00:00 12.7 22 Sudoeste 34 Sudoeste 0 -- -- 53
2019-04-23 14:00:00 10.9 19 Sudoeste 34 Sudoeste 0 -- -- 59
2019-04-23 13:00:00 8.4 24 Sudoeste 36 Oeste 0 -- -- 70
2019-04-23 12:00:00 8.7 24 Sudoeste 42 Sudoeste 0 -- -- 72
2019-04-23 11:00:00 7.4 23 Sudoeste 32 Sudoeste 0 -- -- 78
2019-04-23 10:00:00 6.9 20 Sudoeste 42 Sudoeste 0 -- -- 85
2019-04-23 09:00:00 5.9 21 Sudoeste 29 Sudoeste 0 -- -- 92
2019-04-23 08:00:00 5.4 20 Sudoeste 28 Sudoeste 0.2 -- -- 94
2019-04-23 07:00:00 5.6 15 Sudoeste 28 Sudoeste 0.2 -- -- 93
2019-04-23 06:00:00 6.4 15 Sudoeste 33 Oeste 0 -- -- 90
2019-04-23 05:00:00 8.2 9 Sudoeste 26 Sudoeste 0.2 -- -- 94
2019-04-23 04:00:00 8.7 16 Sudoeste 30 Sudoeste 0.6 -- -- 94
2019-04-23 03:00:00 8.8 8 Sudoeste 20 Sudoeste 0.4 -- -- 95
2019-04-23 02:00:00 9.3 13 Sudoeste 23 Oeste 0 -- -- 92
2019-04-23 01:00:00 9.7 17 Oeste 32 Oeste 0 -- -- 87
2019-04-23 00:00:00 11.2 25 Oeste 35 Oeste 0 -- -- 76
2019-04-22 23:00:00 11.5 10 Sudoeste 15 Sudoeste 0 -- -- 69
2019-04-22 22:00:00 12.6 9 Sudoeste 18 Sur 0 -- -- 63
2019-04-22 21:00:00 14.1 6 Sur 26 Sudoeste 0 -- -- 55
2019-04-22 20:00:00 15.6 19 Sudoeste 28 Sudoeste 0 -- -- 48
2019-04-22 19:00:00 17.3 20 Sudoeste 30 Sudoeste 0 -- -- 42
2019-04-22 18:00:00 17.5 6 Sudoeste 22 Sur 0 -- -- 46
2019-04-22 17:00:00 17.6 10 Sur 26 Sudoeste 0 -- -- 45
2019-04-22 16:00:00 16.4 9 Sur 24 Sudoeste 0 -- -- 51
2019-04-22 15:00:00 14.9 13 Sudoeste 24 Sudoeste 0 -- -- 53
2019-04-22 14:00:00 15.3 12 Sudoeste 21 Sudoeste 0 -- -- 51
2019-04-22 13:00:00 14.8 10 Oeste 18 Sudoeste 0 -- -- 52
2019-04-22 12:00:00 14.6 4 Sur 13 Sudoeste 0 -- -- 53
2019-04-22 11:00:00 13.3 5 Sudoeste 10 Oeste 0 -- -- 62
2019-04-22 10:00:00 9 3 Oeste 8 Noroeste 0 -- -- 85
2019-04-22 09:00:00 6.7 0 Calma 5 Oeste 0 -- -- 95
2019-04-22 08:00:00 4.3 4 Nordeste 8 Oeste 0 -- -- 96
2019-04-22 07:00:00 2.9 4 Noroeste 5 Sudeste 0 -- -- 96
2019-04-22 06:00:00 3.9 3 Norte 10 Nordeste 0 -- -- 94
2019-04-22 05:00:00 4 4 Norte 13 Nordeste 0 -- -- 94
2019-04-22 04:00:00 6.6 8 Nordeste 13 Nordeste 0 -- -- 91
2019-04-22 03:00:00 6.4 6 Nordeste 11 Nordeste 0 -- -- 91
2019-04-22 02:00:00 7.2 5 Nordeste 14 Este 0 -- -- 88
2019-04-22 01:00:00 8 7 Nordeste 18 Este 0 -- -- 85
2019-04-22 00:00:00 8.9 10 Nordeste 19 Este 0 -- -- 81
2019-04-21 23:00:00 9.5 9 Nordeste 21 Este 0 -- -- 78
2019-04-21 22:00:00 10.4 10 Este 29 Este 0 -- -- 73
2019-04-21 21:00:00 11.7 13 Este 32 Este 0 -- -- 68
2019-04-21 20:00:00 13.3 15 Este 36 Este 0 -- -- 61
2019-04-21 19:00:00 15.3 18 Este 39 Este 0 -- -- 54
2019-04-21 18:00:00 15.5 15 Este 38 Nordeste 0 -- -- 51
2019-04-21 17:00:00 16.3 17 Este 39 Este 0 -- -- 49
2019-04-21 16:00:00 17 22 Nordeste 42 Nordeste 0 -- -- 43
2019-04-21 15:00:00 16.2 20 Nordeste 33 Este 0 -- -- 46
2019-04-21 14:00:00 16.1 18 Nordeste 35 Este 0 -- -- 49
2019-04-21 13:00:00 14.5 14 Este 32 Nordeste 0 -- -- 52
2019-04-21 12:00:00 14 13 Este 27 Nordeste 0 -- -- 59
2019-04-21 11:00:00 12.8 10 Este 22 Este 0 -- -- 66
2019-04-21 10:00:00 10.9 8 Este 16 Este 0 -- -- 72
2019-04-21 09:00:00 7.7 8 Nordeste 14 Nordeste 0 -- -- 83
2019-04-21 08:00:00 5.8 7 Nordeste 13 Nordeste 0 -- -- 89
2019-04-21 07:00:00 5.9 6 Nordeste 18 Nordeste 0 -- -- 89
2019-04-21 06:00:00 6.5 9 Nordeste 19 Nordeste 0 -- -- 87
2019-04-21 05:00:00 7.2 8 Nordeste 23 Nordeste 0 -- -- 83
2019-04-21 04:00:00 9 15 Nordeste 26 Nordeste 0 -- -- 73
2019-04-21 03:00:00 8.8 9 Nordeste 22 Este 0 -- -- 73
2019-04-21 02:00:00 9.6 11 Nordeste 27 Nordeste 0 -- -- 67
2019-04-21 01:00:00 9.7 8 Nordeste 19 Nordeste 0 -- -- 66
2019-04-21 00:00:00 9.8 6 Este 24 Nordeste 0 -- -- 68
2019-04-20 23:00:00 11.3 14 Nordeste 27 Nordeste 0 -- -- 59
2019-04-20 22:00:00 12.8 16 Nordeste 32 Nordeste 0 -- -- 49
2019-04-20 21:00:00 14.7 16 Nordeste 39 Nordeste 0 -- -- 46
2019-04-20 20:00:00 17.7 23 Nordeste 49 Nordeste 0 -- -- 38
2019-04-20 19:00:00 19.1 27 Nordeste 53 Nordeste 0 -- -- 37
2019-04-20 18:00:00 19.9 26 Nordeste 49 Nordeste 0 -- -- 35
2019-04-20 17:00:00 20.7 24 Nordeste 44 Nordeste 0 -- -- 36
2019-04-20 16:00:00 20.2 23 Nordeste 47 Nordeste 0 -- -- 35
2019-04-20 15:00:00 19.7 22 Nordeste 59 Nordeste 0 -- -- 34
2019-04-20 14:00:00 19.3 23 Nordeste 53 Este 0 -- -- 36
2019-04-20 13:00:00 18.5 22 Nordeste 43 Nordeste 0 -- -- 42
2019-04-20 12:00:00 16.7 18 Nordeste 49 Nordeste 0 -- -- 59
2019-04-20 11:00:00 15.5 21 Nordeste 45 Este 0 -- -- 65
2019-04-20 10:00:00 13.7 21 Nordeste 38 Nordeste 0 -- -- 69
2019-04-20 09:00:00 11.3 18 Nordeste 33 Nordeste 0 -- -- 77
2019-04-20 08:00:00 9.3 13 Nordeste 24 Nordeste 0 -- -- 82
2019-04-20 07:00:00 9.1 13 Nordeste 27 Nordeste 0 -- -- 79
2019-04-20 06:00:00 10 10 Nordeste 23 Nordeste 0 -- -- 74
2019-04-20 05:00:00 10.7 11 Nordeste 32 Este 0 -- -- 72
2019-04-20 04:00:00 10.2 9 Nordeste 23 Nordeste 0 -- -- 79
2019-04-20 03:00:00 9.8 9 Nordeste 22 Nordeste 0 -- -- 84
2019-04-20 02:00:00 9.7 14 Nordeste 26 Nordeste 0 -- -- 85
2019-04-20 01:00:00 10.5 12 Nordeste 22 Nordeste 0 -- -- 83
2019-04-20 00:00:00 11.3 8 Nordeste 21 Este 0 -- -- 77
2019-04-19 23:00:00 12.2 10 Nordeste 24 Nordeste 0 -- -- 71
2019-04-19 22:00:00 12.3 13 Nordeste 28 Nordeste 0 -- -- 72
2019-04-19 21:00:00 12.6 14 Nordeste 32 Este 0 -- -- 69
2019-04-19 20:00:00 12.9 16 Nordeste 29 Nordeste 0 -- -- 72
2019-04-19 19:00:00 13.8 13 Nordeste 30 Nordeste 0 -- -- 71
2019-04-19 18:00:00 13.3 14 Nordeste 28 Este 0 -- -- 75
2019-04-19 17:00:00 11.5 13 Este 41 Este 0 -- -- 79
2019-04-19 16:00:00 11.9 14 Este 50 Este 0 -- -- 79
2019-04-19 15:00:00 13.1 18 Este 39 Este 0 -- -- 75
2019-04-19 14:00:00 13.2 18 Este 35 Este 0 -- -- 71
2019-04-19 13:00:00 12.6 17 Este 35 Este 0 -- -- 75
2019-04-19 12:00:00 11.5 15 Este 36 Este 0 -- -- 80
2019-04-19 11:00:00 9.9 13 Este 29 Este 0 -- -- 88
2019-04-19 10:00:00 9.3 15 Este 30 Nordeste 0 -- -- 90
2019-04-19 09:00:00 8.5 11 Este 22 Nordeste 0 -- -- 92
2019-04-19 08:00:00 7.6 8 Este 22 Este 0 -- -- 94
2019-04-19 07:00:00 8 10 Este 22 Este 0 -- -- 93
2019-04-19 06:00:00 8 10 Este 32 Este 0 -- -- 91
2019-04-19 05:00:00 8.2 12 Este 33 Este 0 -- -- 92
2019-04-19 04:00:00 8.6 14 Este 31 Este 0 -- -- 92
2019-04-19 03:00:00 8.6 13 Nordeste 28 Nordeste 0.4 -- -- 94
2019-04-19 02:00:00 8.2 11 Nordeste 24 Nordeste 1.2 -- -- 95
2019-04-19 01:00:00 8.4 13 Nordeste 28 Nordeste 1 -- -- 95
2019-04-19 00:00:00 9.1 12 Nordeste 20 Nordeste 0 -- -- 94
2019-04-18 23:00:00 8.9 10 Nordeste 20 Nordeste 0 -- -- 93
2019-04-18 22:00:00 8.8 11 Nordeste 21 Nordeste 0 -- -- 91
2019-04-18 21:00:00 8.9 15 Nordeste 23 Nordeste 0 -- -- 93
2019-04-18 20:00:00 9.2 9 Este 22 Nordeste 0.2 -- -- 91
2019-04-18 19:00:00 9.5 9 Nordeste 17 Nordeste 0 -- -- 86
2019-04-18 18:00:00 10 7 Este 22 Nordeste 0.6 -- -- 86
2019-04-18 17:00:00 10.3 7 Este 22 Este 0.4 -- -- 87
2019-04-18 16:00:00 10.5 13 Este 26 Este 0 -- -- 79
2019-04-18 15:00:00 10 6 Nordeste 19 Este 0.6 -- -- 87
2019-04-18 14:00:00 10.4 6 Nordeste 14 Este 0 -- -- 77
2019-04-18 13:00:00 10.2 8 Nordeste 14 Este 0.2 -- -- 83
2019-04-18 12:00:00 10.7 5 Oeste 11 Noroeste 0 -- -- 74
2019-04-18 11:00:00 10.4 3 Sudoeste 9 Sudeste 0 -- -- 77
2019-04-18 10:00:00 9.4 5 Sudeste 9 Sudeste 0 -- -- 90
2019-04-18 09:00:00 7.7 5 Sur 10 Sudeste 0 -- -- 96
2019-04-18 08:00:00 7 5 Sur 7 Sur 0 -- -- 96
2019-04-18 07:00:00 7.9 5 Sur 10 Sur 0 -- -- 95
2019-04-18 06:00:00 7.9 5 Sur 10 Sur 0 -- -- 96
2019-04-18 05:00:00 8 5 Sur 19 Sudoeste 0.2 -- -- 96
2019-04-18 04:00:00 8.5 10 Sudoeste 18 Sur 0.2 -- -- 95
2019-04-18 03:00:00 8.6 11 Sur 18 Sudeste 0.4 -- -- 94
2019-04-18 02:00:00 8.9 6 Sur 18 Sudoeste 0.8 -- -- 91
2019-04-18 01:00:00 10.2 6 Sur 12 Sur 0 -- -- 81
2019-04-18 00:00:00 10.7 8 Sudoeste 22 Sudoeste 0 -- -- 78
2019-04-17 23:00:00 11 14 Oeste 50 Oeste 0 -- -- 81
2019-04-17 22:00:00 12.9 31 Oeste 56 Sur 0 -- -- 73
2019-04-17 21:00:00 17.3 33 Sur 53 Sur 0 -- -- 44
2019-04-17 20:00:00 17.1 9 Sur 36 Sur 0 -- -- 50
2019-04-17 19:00:00 18.7 22 Sur 40 Sur 0 -- -- 43
2019-04-17 18:00:00 20 24 Sudeste 39 Sur 0 -- -- 40
2019-04-17 17:00:00 21.1 21 Sudeste 32 Sur 0 -- -- 38
2019-04-17 16:00:00 19.7 6 Nordeste 15 Nordeste 0 -- -- 45
2019-04-17 15:00:00 17.7 6 Sur 24 Sudoeste 0 -- -- 50
2019-04-17 14:00:00 16.4 11 Sur 30 Sur 0 -- -- 51
2019-04-17 13:00:00 16.2 20 Sur 36 Sudeste 0 -- -- 54
2019-04-17 12:00:00 14.9 17 Sudeste 27 Sudeste 0 -- -- 60
2019-04-17 11:00:00 13.1 11 Sudeste 20 Sudeste 0 -- -- 67
2019-04-17 10:00:00 10.3 4 Este 10 Nordeste 0 -- -- 77
2019-04-17 09:00:00 7.9 4 Nordeste 11 Este 0 -- -- 81
2019-04-17 08:00:00 6.5 5 Este 9 Nordeste 0 -- -- 85
2019-04-17 07:00:00 6.3 4 Este 10 Este 0 -- -- 83
2019-04-17 06:00:00 7.5 5 Este 13 Nordeste 0 -- -- 78
2019-04-17 05:00:00 7.4 7 Este 15 Sudeste 0 -- -- 76
2019-04-17 04:00:00 7.6 7 Este 14 Este 0 -- -- 77
2019-04-17 03:00:00 7.7 4 Este 13 Este 0 -- -- 74
2019-04-17 02:00:00 9 7 Este 13 Este 0 -- -- 70
2019-04-17 01:00:00 9.6 6 Este 15 Nordeste 0 -- -- 69
2019-04-17 00:00:00 10.9 7 Este 15 Este 0 -- -- 65
2019-04-16 23:00:00 12.5 6 Este 15 Este 0 -- -- 58
2019-04-16 22:00:00 13.6 5 Nordeste 14 Este 0 -- -- 52
2019-04-16 21:00:00 15.6 4 Este 9 Nordeste 0 -- -- 44
2019-04-16 20:00:00 17.2 4 Sudeste 19 Sudeste 0 -- -- 42
2019-04-16 19:00:00 19.9 9 Sudeste 20 Sudeste 0 -- -- 33
2019-04-16 18:00:00 19.3 14 Sudeste 25 Sudeste 0 -- -- 35
2019-04-16 17:00:00 18.8 9 Sudeste 26 Sudeste 0 -- -- 35
2019-04-16 16:00:00 18.4 10 Sur 25 Sur 0 -- -- 37
2019-04-16 15:00:00 17.4 11 Sudeste 31 Sudeste 0 -- -- 44
2019-04-16 14:00:00 16.8 9 Sudeste 19 Sudeste 0 -- -- 43
2019-04-16 13:00:00 15.8 7 Sudeste 13 Este 0 -- -- 48
2019-04-16 12:00:00 14.3 4 Este 13 Sudeste 0 -- -- 51
2019-04-16 11:00:00 11.2 4 Este 10 Este 0 -- -- 66
2019-04-16 10:00:00 8.5 4 Sudeste 9 Sudeste 0 -- -- 74
2019-04-16 09:00:00 4.8 0 Calma 4 Nordeste 0 -- -- 97
2019-04-16 08:00:00 0.8 0 Calma 8 Oeste 0 -- -- 98
2019-04-16 07:00:00 1.1 3 Sudoeste 12 Oeste 0 -- -- 97
2019-04-16 06:00:00 0.8 5 Sudoeste 9 Sudoeste 0 -- -- 95
2019-04-16 05:00:00 1.5 4 Sudoeste 10 Este 0 -- -- 93
2019-04-16 04:00:00 2.5 4 Noroeste 9 Nordeste 0 -- -- 90
2019-04-16 03:00:00 3 0 Calma 13 Oeste 0 -- -- 93
2019-04-16 02:00:00 4.4 10 Oeste 15 Oeste 0 -- -- 88
2019-04-16 01:00:00 5.2 11 Oeste 24 Oeste 0 -- -- 88
2019-04-16 00:00:00 7.5 13 Oeste 19 Noroeste 0 -- -- 82
2019-04-15 23:00:00 8 10 Oeste 14 Oeste 0 -- -- 86
2019-04-15 22:00:00 8.6 9 Noroeste 39 Oeste 0 -- -- 81
2019-04-15 21:00:00 12.1 21 Oeste 40 Oeste 0 -- -- 64
2019-04-15 20:00:00 14.1 28 Oeste 47 Sudoeste 0 -- -- 55
2019-04-15 19:00:00 14.7 33 Oeste 44 Oeste 0 -- -- 56
2019-04-15 18:00:00 14 32 Oeste 72 Noroeste 0 -- -- 54
2019-04-15 17:00:00 15.9 44 Oeste 64 Oeste 0 -- -- 53
2019-04-15 16:00:00 19 42 Sudoeste 60 Sudoeste 0 -- -- 47
2019-04-15 15:00:00 18.7 41 Sudoeste 57 Oeste 0.2 -- -- 58
2019-04-15 14:00:00 13.6 27 Sudoeste 51 Oeste 0.4 -- -- 91
2019-04-15 13:00:00 20.6 30 Sudoeste 51 Sudoeste 0 -- -- 51
2019-04-15 12:00:00 17 16 Sur 33 Sudeste 0 -- -- 69
2019-04-15 11:00:00 16.4 13 Sur 19 Sur 0 -- -- 71
2019-04-15 10:00:00 14.6 9 Sudeste 13 Sudeste 0 -- -- 77
2019-04-15 09:00:00 11.7 4 Este 9 Este 0 -- -- 85
2019-04-15 08:00:00 10.3 5 Sudeste 8 Este 0 -- -- 88
2019-04-15 07:00:00 10.1 3 Este 7 Sudeste 0 -- -- 90
2019-04-15 06:00:00 10.2 2 Sudeste 5 Sudeste 0 -- -- 91
2019-04-15 05:00:00 10.1 0 Calma 3 Oeste 0 -- -- 90
2019-04-15 04:00:00 10.6 0 Calma 8 Sudeste 0 -- -- 85
2019-04-15 03:00:00 11 0 Calma 7 Este 0 -- -- 86
2019-04-15 02:00:00 11.3 0 Calma 7 Sudeste 0 -- -- 86
2019-04-15 01:00:00 9.8 3 Sudeste 4 Sudeste 0 -- -- 90
2019-04-15 00:00:00 10.5 3 Oeste 5 Sudoeste 0 -- -- 86
2019-04-14 23:00:00 10.9 3 Noroeste 13 Oeste 0 -- -- 84
2019-04-14 22:00:00 11.7 10 Oeste 15 Sudoeste 0 -- -- 84
2019-04-14 21:00:00 14.6 12 Oeste 22 Oeste 0 -- -- 73
2019-04-14 20:00:00 18.6 18 Sudoeste 26 Sudoeste 0 -- -- 59
2019-04-14 19:00:00 20.7 13 Sudoeste 23 Sudoeste 0 -- -- 50
2019-04-14 18:00:00 21.6 7 Sudoeste 14 Sudoeste 0 -- -- 47
2019-04-14 17:00:00 20.9 4 Nordeste 12 Oeste 0 -- -- 49
2019-04-14 16:00:00 20.2 8 Oeste 18 Oeste 0 -- -- 52
2019-04-14 15:00:00 19.9 8 Oeste 15 Oeste 0 -- -- 53
2019-04-14 14:00:00 18.1 8 Oeste 24 Oeste 0 -- -- 57
2019-04-14 13:00:00 17.2 13 Sudoeste 22 Sudoeste 0 -- -- 65
2019-04-14 12:00:00 16.5 11 Sudoeste 22 Sudoeste 0 -- -- 68
2019-04-14 11:00:00 14.7 13 Oeste 20 Oeste 0 -- -- 75
2019-04-14 10:00:00 12.4 16 Sudoeste 19 Sudoeste 0 -- -- 85
2019-04-14 09:00:00 10.1 7 Sudoeste 19 Sudoeste 0 -- -- 93
2019-04-14 08:00:00 8.6 14 Sudoeste 22 Oeste 0 -- -- 96
2019-04-14 07:00:00 8.5 10 Sudoeste 18 Oeste 0 -- -- 94
2019-04-14 06:00:00 9.3 14 Sudoeste 19 Oeste 0 -- -- 92
2019-04-14 05:00:00 9.4 12 Oeste 19 Sudoeste 0 -- -- 90
2019-04-14 04:00:00 9.7 12 Sudoeste 19 Oeste 0 -- -- 85
2019-04-14 03:00:00 10.6 14 Oeste 19 Oeste 0 -- -- 78
2019-04-14 02:00:00 11.7 14 Oeste 21 Oeste 0 -- -- 73
2019-04-14 01:00:00 12.7 15 Oeste 21 Oeste 0 -- -- 67
2019-04-14 00:00:00 12 12 Oeste 20 Oeste 0 -- -- 68
2019-04-13 23:00:00 12.1 15 Oeste 24 Sudoeste 0 -- -- 65
2019-04-13 22:00:00 12.9 16 Sudoeste 19 Sudoeste 0 -- -- 61
2019-04-13 21:00:00 12.8 12 Sudoeste 20 Sudoeste 0 -- -- 61
2019-04-13 20:00:00 19.5 11 Sudoeste 26 Sudoeste 0 -- -- 39
2019-04-13 19:00:00 19.9 17 Sudoeste 27 Sudoeste 0 -- -- 35
2019-04-13 18:00:00 19.7 14 Oeste 27 Oeste 0 -- -- 31
2019-04-13 17:00:00 19.7 15 Sudoeste 27 Sudoeste 0 -- -- 33
2019-04-13 16:00:00 19 12 Oeste 25 Oeste 0 -- -- 35
2019-04-13 15:00:00 18.2 12 Sudoeste 26 Sudoeste 0 -- -- 39
2019-04-13 14:00:00 17.1 10 Oeste 20 Sudoeste 0 -- -- 39
2019-04-13 13:00:00 16.8 9 Sudoeste 20 Sudoeste 0 -- -- 43
2019-04-13 12:00:00 15.7 8 Sur 16 Sudoeste 0 -- -- 43
2019-04-13 11:00:00 13.4 8 Sudeste 13 Sudeste 0 -- -- 52
2019-04-13 10:00:00 10.1 6 Sudeste 11 Sudeste 0 -- -- 66
2019-04-13 09:00:00 6.1 3 Este 6 Este 0 -- -- 74
2019-04-13 08:00:00 2.4 0 Calma 4 Este 0 -- -- 91
2019-04-13 07:00:00 1.6 0 Calma 3 Este 0 -- -- 92
2019-04-13 06:00:00 0.9 0 Calma 3 Norte 0 -- -- 91
2019-04-13 05:00:00 1.2 2 Norte 4 Noroeste 0 -- -- 91
2019-04-13 04:00:00 1.2 2 Noroeste 3 Nordeste 0 -- -- 89
2019-04-13 03:00:00 1 0 Calma 5 Nordeste 0 -- -- 86
2019-04-13 02:00:00 2.3 3 Norte 8 Este 0 -- -- 83
2019-04-13 01:00:00 4.4 6 Nordeste 14 Este 0 -- -- 73
2019-04-13 00:00:00 3.6 0 Calma 3 Oeste 0 -- -- 77
2019-04-12 23:00:00 3.8 0 Calma 3 Oeste 0 -- -- 78
2019-04-12 22:00:00 6.2 0 Calma 5 Este 0 -- -- 67
2019-04-12 21:00:00 11.9 4 Este 8 Sudeste 0 -- -- 44
2019-04-12 20:00:00 16.3 2 Noroeste 9 Norte 0 -- -- 31
2019-04-12 19:00:00 16.1 5 Noroeste 9 Noroeste 0 -- -- 38
2019-04-12 18:00:00 15.6 6 Noroeste 16 Noroeste 0 -- -- 40
2019-04-12 17:00:00 15 9 Oeste 15 Oeste 0 -- -- 43
2019-04-12 16:00:00 14.2 7 Noroeste 18 Oeste 0 -- -- 48
2019-04-12 15:00:00 12.9 8 Nordeste 18 Norte 0 -- -- 51
2019-04-12 14:00:00 11.7 11 Norte 20 Noroeste 0 -- -- 58
2019-04-12 13:00:00 11.1 8 Noroeste 14 Noroeste 0 -- -- 56
2019-04-12 12:00:00 9.3 7 Norte 15 Nordeste 0 -- -- 68
2019-04-12 11:00:00 8 7 Nordeste 12 Nordeste 0 -- -- 74
2019-04-12 10:00:00 6.5 7 Nordeste 12 Norte 0 -- -- 83
2019-04-12 09:00:00 2.2 4 Norte 6 Norte 0 -- -- 97
2019-04-12 08:00:00 -0.4 4 Norte 7 Nordeste 0 -- -- 95
2019-04-12 07:00:00 -0.3 4 Nordeste 5 Nordeste 0 -- -- 97
2019-04-12 06:00:00 -0.8 0 Calma 3 Este 0 -- -- 95
2019-04-12 05:00:00 0.7 2 Norte 9 Nordeste 0 -- -- 92
2019-04-12 04:00:00 2.3 3 Nordeste 9 Este 0 -- -- 91
2019-04-12 03:00:00 3.3 5 Nordeste 10 Sudeste 0 -- -- 92
2019-04-12 02:00:00 3.9 6 Este 10 Este 0 -- -- 89
2019-04-12 01:00:00 4.4 5 Nordeste 12 Este 0 -- -- 88
2019-04-12 00:00:00 5.3 8 Este 14 Este 0 -- -- 85
2019-04-11 23:00:00 6.5 6 Este 21 Este 0 -- -- 82
2019-04-11 22:00:00 8.6 10 Nordeste 18 Nordeste 0 -- -- 66
2019-04-11 21:00:00 11.3 5 Nordeste 10 Norte 0 -- -- 51
2019-04-11 20:00:00 14.2 5 Norte 19 Oeste 0 -- -- 44
2019-04-11 19:00:00 14 6 Norte 15 Noroeste 0 -- -- 41
2019-04-11 18:00:00 15.5 5 Oeste 17 Nordeste 0 -- -- 43
2019-04-11 17:00:00 13.8 7 Norte 16 Norte 0 -- -- 44
2019-04-11 16:00:00 13.6 6 Norte 23 Noroeste 0 -- -- 48
2019-04-11 15:00:00 11.9 12 Norte 22 Noroeste 0 -- -- 47
2019-04-11 14:00:00 11.9 9 Noroeste 23 Noroeste 0 -- -- 49
2019-04-11 13:00:00 9.9 14 Noroeste 21 Norte 0 -- -- 59
2019-04-11 12:00:00 9.7 10 Norte 19 Noroeste 0 -- -- 58
2019-04-11 11:00:00 8.1 6 Oeste 14 Oeste 0 -- -- 63
2019-04-11 10:00:00 5.4 6 Noroeste 12 Oeste 0 -- -- 86
2019-04-11 09:00:00 1.8 4 Oeste 10 Oeste 0 -- -- 96
2019-04-11 08:00:00 -1.1 2 Noroeste 7 Sudoeste 0 -- -- 97
2019-04-11 07:00:00 -1.6 4 Oeste 7 Oeste 0 -- -- 96
2019-04-11 06:00:00 -1 3 Oeste 8 Norte 0 -- -- 96
2019-04-11 05:00:00 -0.6 2 Noroeste 6 Noroeste 0 -- -- 97
2019-04-11 04:00:00 -0.3 3 Norte 6 Noroeste 0 -- -- 96
2019-04-11 03:00:00 0.4 2 Oeste 5 Oeste 0 -- -- 96
2019-04-11 02:00:00 1.1 4 Oeste 6 Oeste 0 -- -- 95
2019-04-11 01:00:00 2.9 0 Calma 5 Noroeste 0 -- -- 94
2019-04-11 00:00:00 4.2 3 Este 9 Nordeste 0 -- -- 92
2019-04-10 23:00:00 6.3 8 Nordeste 17 Nordeste 0 -- -- 83
2019-04-10 22:00:00 6.8 9 Nordeste 17 Nordeste 0 -- -- 82
2019-04-10 21:00:00 7.9 9 Nordeste 16 Este 0 -- -- 77
2019-04-10 20:00:00 8.9 9 Nordeste 23 Nordeste 0 -- -- 73
2019-04-10 19:00:00 10.5 17 Norte 30 Norte 0 -- -- 69
2019-04-10 18:00:00 10.8 14 Nordeste 26 Nordeste 0 -- -- 59
2019-04-10 17:00:00 11.7 14 Norte 25 Norte 0.2 -- -- 62
2019-04-10 16:00:00 10.4 10 Nordeste 18 Nordeste 0 -- -- 71
2019-04-10 15:00:00 10.2 9 Nordeste 16 Norte 0 -- -- 65
2019-04-10 14:00:00 9.6 10 Noroeste 22 Noroeste 0 -- -- 70
2019-04-10 13:00:00 9.1 9 Noroeste 17 Noroeste 0 -- -- 73
2019-04-10 12:00:00 8 10 Oeste 17 Sudoeste 0 -- -- 79
2019-04-10 11:00:00 6.2 10 Sudoeste 18 Sudoeste 0 -- -- 88
2019-04-10 10:00:00 5.8 13 Sudoeste 18 Sudoeste 0 -- -- 96
2019-04-10 09:00:00 3.6 12 Sudoeste 17 Sudoeste 0.4 -- -- 97
2019-04-10 08:00:00 3.5 14 Oeste 19 Oeste 0.8 -- -- 93
2019-04-10 07:00:00 2.6 13 Sudoeste 21 Oeste 0 -- -- 96
2019-04-10 06:00:00 2.3 12 Sudoeste 20 Sudoeste 0 -- -- 96
2019-04-10 05:00:00 2.1 14 Sudoeste 27 Sudoeste 0 -- -- 96
2019-04-10 04:00:00 2 15 Oeste 21 Oeste 0 -- -- 96
2019-04-10 03:00:00 2.3 15 Oeste 22 Oeste 0 -- -- 95
2019-04-10 02:00:00 2.5 12 Oeste 17 Sudoeste 0 -- -- 96
2019-04-10 01:00:00 3.5 14 Sudoeste 27 Oeste 0 -- -- 95
2019-04-10 00:00:00 5.1 16 Oeste 22 Sudoeste 0 -- -- 90
2019-04-09 23:00:00 4.2 13 Sudoeste 32 Sudoeste 0 -- -- 92
2019-04-09 22:00:00 6.6 22 Oeste 41 Oeste 0 -- -- 81
2019-04-09 21:00:00 7.7 23 Sudoeste 44 Oeste 0 -- -- 75
2019-04-09 20:00:00 9.6 32 Oeste 47 Oeste 0 -- -- 66
2019-04-09 19:00:00 11.2 35 Sudoeste 47 Sudoeste 0 -- -- 63
2019-04-09 18:00:00 8.1 15 Noroeste 45 Oeste 0.4 -- -- 78
2019-04-09 17:00:00 11.3 21 Oeste 40 Oeste 0 -- -- 61
2019-04-09 16:00:00 9.5 23 Oeste 34 Oeste 0 -- -- 70
2019-04-09 15:00:00 9.3 25 Oeste 42 Oeste 0 -- -- 63
2019-04-09 14:00:00 7.8 26 Oeste 51 Oeste 0 -- -- 80
2019-04-09 13:00:00 5.9 26 Oeste 37 Sudoeste 0.2 -- -- 92
2019-04-09 12:00:00 4.8 22 Oeste 46 Sudoeste 2.2 -- -- 96
2019-04-09 11:00:00 5.8 30 Sudoeste 44 Sudoeste 0.2 -- -- 94
2019-04-09 10:00:00 5.7 23 Sudoeste 36 Sudoeste 0.4 -- -- 96
2019-04-09 09:00:00 4.9 18 Sudoeste 27 Sudoeste 0 -- -- 94
2019-04-09 08:00:00 4.6 17 Sudoeste 26 Sudoeste 0 -- -- 93
2019-04-09 07:00:00 3.9 13 Sudoeste 26 Sudoeste 0 -- -- 94
2019-04-09 06:00:00 4.3 15 Sudoeste 27 Sudoeste 0 -- -- 95
2019-04-09 05:00:00 3.6 17 Sudoeste 27 Sudoeste 0 -- -- 95
2019-04-09 04:00:00 3.3 18 Sudoeste 30 Sudoeste 0 -- -- 95
2019-04-09 03:00:00 3.1 17 Sudoeste 26 Sudoeste 0 -- -- 94
2019-04-09 02:00:00 3.8 18 Sudoeste 28 Oeste 0 -- -- 91
2019-04-09 01:00:00 3.4 16 Sudoeste 21 Sudoeste 0 -- -- 91
2019-04-09 00:00:00 3.6 16 Sudoeste 22 Sudoeste 0 -- -- 89
2019-04-08 23:00:00 5 17 Sudoeste 26 Sudoeste 0 -- -- 84
2019-04-08 22:00:00 5.6 15 Sudoeste 31 Oeste 0 -- -- 83
2019-04-08 21:00:00 7.2 18 Oeste 50 Sudoeste 0 -- -- 76
2019-04-08 20:00:00 10.3 21 Sudoeste 41 Sudoeste 0 -- -- 60
2019-04-08 19:00:00 13.4 29 Sudoeste 43 Oeste 0 -- -- 48
2019-04-08 18:00:00 13.6 28 Sudoeste 41 Sudoeste 0 -- -- 46
2019-04-08 17:00:00 12.5 27 Sudoeste 38 Sudoeste 0 -- -- 54
2019-04-08 16:00:00 13.3 24 Oeste 39 Sudoeste 0 -- -- 48
2019-04-08 15:00:00 12.9 27 Sudoeste 39 Sudoeste 0 -- -- 48
2019-04-08 14:00:00 12.2 20 Oeste 36 Sudoeste 0 -- -- 52
2019-04-08 13:00:00 10.5 19 Oeste 31 Oeste 0 -- -- 65
2019-04-08 12:00:00 11.2 14 Sudoeste 23 Oeste 0 -- -- 68
2019-04-08 11:00:00 8.9 14 Oeste 28 Oeste 0 -- -- 84
2019-04-08 10:00:00 8.4 18 Oeste 24 Sudoeste 0 -- -- 88
2019-04-08 09:00:00 6.4 9 Oeste 17 Oeste 0 -- -- 97
2019-04-08 08:00:00 6.8 12 Oeste 23 Sudoeste 0 -- -- 97
2019-04-08 07:00:00 7.3 19 Sudoeste 32 Sudoeste 0.2 -- -- 96
2019-04-08 06:00:00 7.6 20 Sudoeste 40 Sudoeste 0 -- -- 97
2019-04-08 05:00:00 7.5 21 Sudoeste 35 Sudoeste 0 -- -- 96
2019-04-08 04:00:00 7.7 22 Sudoeste 33 Sudoeste 0 -- -- 95
2019-04-08 03:00:00 7.8 22 Sudoeste 33 Sudoeste 0 -- -- 97
2019-04-08 02:00:00 7.6 24 Sudoeste 36 Sudoeste 0.2 -- -- 98
2019-04-08 01:00:00 6.4 9 Sudoeste 19 Sudeste 0.2 -- -- 98
2019-04-08 00:00:00 5.8 10 Sudeste 19 Sur 0.2 -- -- 98
2019-04-07 23:00:00 5.3 9 Sudeste 19 Sudeste 0.2 -- -- 97
2019-04-07 22:00:00 5 12 Sudeste 18 Sudeste 0.2 -- -- 96
2019-04-07 21:00:00 5.1 6 Sudeste 16 Sudoeste 1.6 -- -- 96
2019-04-07 20:00:00 5.2 12 Sudoeste 31 Sudoeste 0.8 -- -- 94
2019-04-07 19:00:00 5.7 21 Sudoeste 37 Sudoeste 0.6 -- -- 92
2019-04-07 18:00:00 7.6 28 Sudoeste 43 Sudoeste 0 -- -- 73
2019-04-07 17:00:00 10.4 31 Sudoeste 54 Sudoeste 0 -- -- 57
2019-04-07 16:00:00 11.1 22 Sudoeste 33 Sudoeste 0 -- -- 46
2019-04-07 15:00:00 11 20 Sudoeste 32 Sudoeste 0 -- -- 51
2019-04-07 14:00:00 10.7 14 Sudoeste 29 Sudoeste 0 -- -- 53
2019-04-07 13:00:00 9.1 16 Sudoeste 28 Sudoeste 0 -- -- 57
2019-04-07 12:00:00 7.3 18 Oeste 29 Oeste 0 -- -- 62
2019-04-07 11:00:00 5.6 20 Oeste 32 Oeste 0 -- -- 73
2019-04-07 10:00:00 3.5 22 Oeste 27 Oeste 0 -- -- 86
2019-04-07 09:00:00 0.8 16 Oeste 22 Oeste 0 -- -- 94
2019-04-07 08:00:00 -0.5 17 Oeste 23 Oeste 0 -- -- 94
2019-04-07 07:00:00 -0.4 20 Oeste 26 Oeste 0 -- -- 94
2019-04-07 06:00:00 -0.7 16 Oeste 23 Oeste 0 -- -- 96
2019-04-07 05:00:00 -0.3 17 Oeste 22 Sudoeste 0 -- -- 96
2019-04-07 04:00:00 -0.3 14 Oeste 25 Sudoeste 0 -- -- 95
2019-04-07 03:00:00 0.9 17 Sudoeste 25 Sudoeste 0 -- -- 94
2019-04-07 02:00:00 1.5 18 Sudoeste 27 Sudoeste 0 -- -- 93
2019-04-07 01:00:00 1.4 17 Oeste 28 Oeste 0 -- -- 89
2019-04-07 00:00:00 2.2 18 Oeste 22 Oeste 0 -- -- 87
2019-04-06 23:00:00 2.2 12 Oeste 31 Oeste 0 -- -- 83
2019-04-06 22:00:00 3.9 21 Noroeste 41 Oeste 0 -- -- 73
2019-04-06 21:00:00 5.4 28 Oeste 43 Oeste 0 -- -- 68
2019-04-06 20:00:00 6 26 Noroeste 51 Noroeste 0 -- -- 74
2019-04-06 19:00:00 7.1 32 Oeste 48 Oeste 0 -- -- 68
2019-04-06 18:00:00 4.6 12 Oeste 36 Noroeste 1.6 -- -- 94
2019-04-06 17:00:00 4.3 12 Noroeste 75 Sudoeste 0 -- -- 82
2019-04-06 16:00:00 8.5 39 Sudoeste 78 Oeste 0 -- -- 66
2019-04-06 15:00:00 8.4 42 Sudoeste 57 Sudoeste 0 -- -- 66
2019-04-06 14:00:00 6.4 39 Sudoeste 57 Oeste 0 -- -- 77
2019-04-06 13:00:00 5.2 35 Sudoeste 52 Sudoeste 0 -- -- 81
2019-04-06 12:00:00 4.5 32 Sudoeste 51 Sudoeste 0 -- -- 84
2019-04-06 11:00:00 4.5 36 Sudoeste 49 Sudoeste 0 -- -- 86
2019-04-06 10:00:00 4.2 28 Sudoeste 44 Sudoeste 0 -- -- 89
2019-04-06 09:00:00 3.2 30 Sudoeste 41 Sudoeste 0 -- -- 95
2019-04-06 08:00:00 2.6 26 Sudoeste 38 Sudoeste 0.4 -- -- 97
2019-04-06 07:00:00 2.4 21 Sudoeste 36 Sudoeste 0.6 -- -- 97
2019-04-06 06:00:00 2.3 20 Sudoeste 38 Sudoeste 0 -- -- 96
2019-04-06 05:00:00 1.7 22 Sudoeste 33 Sudoeste 0 -- -- 96
2019-04-06 04:00:00 1.1 20 Sudoeste 38 Sudoeste 0 -- -- 97
2019-04-06 03:00:00 1.6 24 Sudoeste 33 Sudoeste 0 -- -- 97
2019-04-06 02:00:00 1 20 Sudoeste 29 Sudoeste 0 -- -- 96
2019-04-06 01:00:00 1 17 Sudoeste 26 Sudoeste 0 -- -- 95
2019-04-06 00:00:00 1.8 19 Oeste 27 Sudoeste 0 -- -- 92
2019-04-05 23:00:00 1.9 15 Oeste 20 Oeste 0 -- -- 91
2019-04-05 22:00:00 2.5 13 Oeste 20 Sudoeste 0 -- -- 84
2019-04-05 21:00:00 4.2 14 Oeste 29 Oeste 0 -- -- 78
2019-04-05 20:00:00 5.8 22 Oeste 45 Oeste 0 -- -- 67
2019-04-05 19:00:00 9.3 28 Sudoeste 40 Oeste 0 -- -- 51
2019-04-05 18:00:00 10.2 23 Oeste 45 Sudoeste 0 -- -- 45
2019-04-05 17:00:00 10 24 Oeste 35 Oeste 0 -- -- 49
2019-04-05 16:00:00 8.9 19 Oeste 33 Oeste 0 -- -- 53
2019-04-05 15:00:00 7.5 21 Oeste 33 Sudoeste 0 -- -- 59
2019-04-05 14:00:00 6.4 18 Oeste 32 Sudoeste 0 -- -- 70
2019-04-05 13:00:00 6.3 23 Sudoeste 33 Sudoeste 0 -- -- 69
2019-04-05 12:00:00 7.2 17 Sudoeste 28 Sudoeste 0 -- -- 73
2019-04-05 11:00:00 5.3 24 Oeste 31 Oeste 0 -- -- 81
2019-04-05 10:00:00 3.7 23 Sudoeste 35 Sudoeste 0 -- -- 86
2019-04-05 09:00:00 3.2 21 Sudoeste 28 Sudoeste 0 -- -- 94
2019-04-05 08:00:00 3.2 16 Sudoeste 39 Sudoeste 0.2 -- -- 94
2019-04-05 07:00:00 4 24 Sudoeste 35 Sudoeste 0.2 -- -- 96
2019-04-05 06:00:00 4.2 18 Sudoeste 27 Sudoeste 0.2 -- -- 96
2019-04-05 05:00:00 3.9 10 Sur 30 Sudoeste 0 -- -- 96
2019-04-05 04:00:00 3.7 15 Sur 35 Sudoeste 0.4 -- -- 95
2019-04-05 03:00:00 4 15 Sur 27 Sur 0.2 -- -- 92
2019-04-05 02:00:00 3.9 13 Sur 21 Sur 0 -- -- 93
2019-04-05 01:00:00 3.6 10 Sur 21 Sur 0 -- -- 95
2019-04-05 00:00:00 3.6 15 Sur 23 Sur 0.4 -- -- 95
2019-04-04 23:00:00 3.6 10 Sur 26 Sudoeste 0.4 -- -- 94
2019-04-04 22:00:00 3.6 12 Sudoeste 31 Sudoeste 0.6 -- -- 94
2019-04-04 21:00:00 3.8 17 Sudoeste 27 Sudoeste 0.6 -- -- 91
2019-04-04 20:00:00 4 21 Sudoeste 49 Oeste 0.4 -- -- 89
2019-04-04 19:00:00 4.5 28 Sudoeste 46 Sudoeste 0 -- -- 79
2019-04-04 18:00:00 8.9 34 Sudoeste 53 Oeste 0 -- -- 46
2019-04-04 17:00:00 10.7 30 Sudoeste 47 Sudoeste 0 -- -- 38
2019-04-04 16:00:00 11.5 29 Sudoeste 47 Sudoeste 0 -- -- 39
2019-04-04 15:00:00 10.6 27 Sudoeste 40 Sudoeste 0 -- -- 41
2019-04-04 14:00:00 10.5 24 Sudoeste 39 Sudoeste 0 -- -- 40
2019-04-04 13:00:00 8.7 18 Sudoeste 39 Oeste 0 -- -- 43
2019-04-04 12:00:00 7.1 18 Oeste 43 Sudoeste 0 -- -- 48
2019-04-04 11:00:00 5.8 19 Oeste 28 Oeste 0 -- -- 53
2019-04-04 10:00:00 2.8 15 Oeste 23 Oeste 0 -- -- 65
2019-04-04 09:00:00 -1 13 Oeste 19 Oeste 0 -- -- 81
2019-04-04 08:00:00 -3.4 12 Oeste 15 Oeste 0 -- -- 86
2019-04-04 07:00:00 -3.1 11 Oeste 14 Oeste 0 -- -- 85
2019-04-04 06:00:00 -3.1 5 Noroeste 17 Oeste 0 -- -- 85
2019-04-04 05:00:00 -2.3 13 Oeste 21 Oeste 0 -- -- 84
2019-04-04 04:00:00 -1.5 14 Oeste 23 Oeste 0 -- -- 84
2019-04-04 03:00:00 -1.2 10 Oeste 22 Noroeste 0 -- -- 83
2019-04-04 02:00:00 -1 16 Noroeste 23 Oeste 0 -- -- 80
2019-04-04 01:00:00 -1 14 Oeste 21 Noroeste 0 -- -- 79
2019-04-04 00:00:00 0.7 11 Noroeste 21 Noroeste 0 -- -- 66
2019-04-03 23:00:00 1.7 10 Norte 16 Norte 0 -- -- 66
2019-04-03 22:00:00 2.3 8 Norte 20 Norte 0 -- -- 61
2019-04-03 21:00:00 5.1 12 Norte 37 Noroeste 0 -- -- 49
2019-04-03 20:00:00 7.6 23 Noroeste 49 Noroeste 0 -- -- 39
2019-04-03 19:00:00 9.6 25 Noroeste 40 Noroeste 0 -- -- 32
2019-04-03 18:00:00 9.9 24 Noroeste 42 Noroeste 0 -- -- 40
2019-04-03 17:00:00 8.1 25 Norte 45 Norte 0 -- -- 49
2019-04-03 16:00:00 10.4 30 Noroeste 51 Oeste 0 -- -- 38
2019-04-03 15:00:00 10.5 28 Oeste 42 Noroeste 0 -- -- 40
2019-04-03 14:00:00 10.3 33 Noroeste 43 Noroeste 0 -- -- 43
2019-04-03 13:00:00 8.3 22 Noroeste 38 Noroeste 0 -- -- 47
2019-04-03 12:00:00 8.6 29 Noroeste 43 Noroeste 0 -- -- 49
2019-04-03 11:00:00 7.5 22 Noroeste 39 Noroeste 0 -- -- 58
2019-04-03 10:00:00 5.9 25 Noroeste 34 Noroeste 0 -- -- 65
2019-04-03 09:00:00 3 17 Noroeste 24 Noroeste 0 -- -- 79
2019-04-03 08:00:00 2.9 14 Noroeste 23 Noroeste 0 -- -- 81
2019-04-03 07:00:00 3.8 12 Noroeste 19 Noroeste 0 -- -- 82
2019-04-03 06:00:00 3.9 13 Noroeste 22 Noroeste 0 -- -- 82
2019-04-03 05:00:00 2.4 13 Oeste 18 Oeste 0 -- -- 85
2019-04-03 04:00:00 1.3 8 Oeste 10 Oeste 0 -- -- 92
2019-04-03 03:00:00 1.2 0 Calma 5 Oeste 0 -- -- 89
2019-04-03 02:00:00 2.5 2 Noroeste 5 Noroeste 0 -- -- 84
2019-04-03 01:00:00 5.1 0 Calma 6 Nordeste 0 -- -- 81
2019-04-03 00:00:00 7.7 4 Este 10 Nordeste 0 -- -- 75
2019-04-02 23:00:00 9.1 5 Nordeste 25 Noroeste 0 -- -- 66
2019-04-02 22:00:00 11.1 17 Noroeste 41 Noroeste 0 -- -- 56
2019-04-02 21:00:00 13.2 17 Noroeste 27 Noroeste 0 -- -- 43
2019-04-02 20:00:00 14.4 10 Sudoeste 18 Oeste 0 -- -- 50
2019-04-02 19:00:00 15.5 12 Oeste 23 Oeste 0 -- -- 42
2019-04-02 18:00:00 17.7 7 Noroeste 23 Oeste 0 -- -- 35
2019-04-02 17:00:00 17.6 10 Oeste 32 Sur 0 -- -- 36
2019-04-02 16:00:00 18.7 10 Sudoeste 18 Oeste 0 -- -- 36
2019-04-02 15:00:00 16.3 4 Este 19 Nordeste 0 -- -- 43
2019-04-02 14:00:00 15.3 5 Este 19 Este 0 -- -- 47
2019-04-02 13:00:00 15.8 7 Este 21 Este 0 -- -- 47
2019-04-02 12:00:00 13.8 12 Este 22 Este 0 -- -- 52
2019-04-02 11:00:00 12.5 9 Este 17 Nordeste 0 -- -- 61
2019-04-02 10:00:00 10.6 7 Este 14 Este 0 -- -- 70
2019-04-02 09:00:00 6.9 6 Nordeste 10 Nordeste 0 -- -- 82
2019-04-02 08:00:00 6.6 5 Nordeste 9 Nordeste 0 -- -- 83
2019-04-02 07:00:00 6.4 4 Este 8 Este 0 -- -- 83
2019-04-02 06:00:00 5.9 4 Nordeste 11 Noroeste 0 -- -- 83
2019-04-02 05:00:00 6.1 4 Norte 15 Nordeste 0 -- -- 79
2019-04-02 04:00:00 7.8 5 Este 12 Este 0 -- -- 78
2019-04-02 03:00:00 7.8 6 Este 17 Este 0 -- -- 77
2019-04-02 02:00:00 7.9 9 Nordeste 18 Nordeste 0 -- -- 75
2019-04-02 01:00:00 8.6 11 Nordeste 20 Este 0 -- -- 73
2019-04-02 00:00:00 10.5 10 Este 21 Nordeste 0 -- -- 65
2019-04-01 23:00:00 7.9 0 Calma -- -- 0 -- -- 62
2019-04-01 22:00:00 10 4 Sudoeste 10 Sur 0 -- -- 59
2019-04-01 21:00:00 11.7 6 Sur 9 Sur 0 -- -- 48
2019-04-01 20:00:00 17.2 4 Sur 10 Sudeste 0 -- -- 36
2019-04-01 19:00:00 18 3 Sudoeste 18 Oeste 0 -- -- 30
2019-04-01 18:00:00 17.8 8 Oeste 23 Sudoeste 0 -- -- 31
2019-04-01 17:00:00 18.4 6 Sudoeste 18 Oeste 0 -- -- 34
2019-04-01 16:00:00 16.8 10 Oeste 18 Oeste 0 -- -- 37
2019-04-01 15:00:00 15.4 8 Sudoeste 14 Nordeste 0 -- -- 44
2019-04-01 14:00:00 15.5 5 Sur 14 Sudeste 0 -- -- 47
2019-04-01 13:00:00 13.9 5 Noroeste 12 Sur 0 -- -- 52
2019-04-01 12:00:00 12.4 5 Nordeste 11 Este 0 -- -- 57
2019-04-01 11:00:00 10.7 4 Este 12 Nordeste 0 -- -- 63
2019-04-01 10:00:00 8.4 5 Este 13 Este 0 -- -- 69
2019-04-01 09:00:00 3.5 7 Nordeste 10 Nordeste 0 -- -- 83
2019-04-01 08:00:00 2.5 6 Nordeste 13 Nordeste 0 -- -- 88
2019-04-01 07:00:00 1.9 3 Nordeste 13 Nordeste 0 -- -- 92
2019-04-01 06:00:00 3.8 7 Nordeste 12 Nordeste 0 -- -- 89
2019-04-01 05:00:00 3.1 5 Nordeste 10 Nordeste 0 -- -- 90
2019-04-01 04:00:00 4.2 4 Nordeste 9 Este 0 -- -- 87
2019-04-01 03:00:00 4.6 5 Nordeste 10 Nordeste 0 -- -- 83
2019-04-01 02:00:00 5.2 5 Nordeste 13 Nordeste 0 -- -- 82
2019-04-01 01:00:00 5.8 6 Este 13 Este 0 -- -- 79
2019-04-01 00:00:00 6.7 5 Este 17 Este 0 -- -- 76
2019-03-31 23:00:00 8 10 Sudeste 23 Sudeste 0 -- -- 72
2019-03-31 22:00:00 9.6 12 Sudeste 26 Este 0 -- -- 63
2019-03-31 21:00:00 13 17 Sudeste 31 Sudeste 0 -- -- 49
2019-03-31 20:00:00 15.8 11 Este 26 Este 0 -- -- 35
2019-03-31 19:00:00 17.9 11 Este 31 Este 0 -- -- 30
2019-03-31 18:00:00 17.9 12 Nordeste 24 Nordeste 0 -- -- 29
2019-03-31 17:00:00 18.5 9 Este 25 Este 0 -- -- 30
2019-03-31 16:00:00 18.5 12 Este 25 Este 0 -- -- 31
2019-03-31 15:00:00 17.9 13 Este 32 Este 0 -- -- 35
2019-03-31 14:00:00 17.7 11 Este 27 Este 0 -- -- 36
2019-03-31 13:00:00 15.6 14 Este 26 Este 0 -- -- 45
2019-03-31 12:00:00 14 14 Este 27 Este 0 -- -- 47
2019-03-31 11:00:00 12.1 14 Este 31 Este 0 -- -- 47
2019-03-31 10:00:00 8.9 12 Nordeste 22 Nordeste 0 -- -- 55
2019-03-31 09:00:00 5.9 9 Nordeste 21 Nordeste 0 -- -- 61
2019-03-31 08:00:00 6 10 Nordeste 26 Este 0 -- -- 59
2019-03-31 07:00:00 6.1 11 Nordeste 22 Este 0 -- -- 60
2019-03-31 06:00:00 6.3 11 Nordeste 21 Nordeste 0 -- -- 59
2019-03-31 05:00:00 6.4 10 Nordeste 22 Este 0 -- -- 58
2019-03-31 03:00:00 7.1 10 Nordeste 19 Nordeste 0 -- -- 59
2019-03-31 01:00:00 7.4 10 Nordeste 22 Nordeste 0 -- -- 62
2019-03-31 00:00:00 8.5 11 Nordeste 17 Nordeste 0 -- -- 60
2019-03-30 23:00:00 9.6 12 Nordeste 19 Nordeste 0 -- -- 52
2019-03-30 22:00:00 7.3 4 Norte 6 Nordeste 0 -- -- 60
2019-03-30 21:00:00 8 3 Norte 5 Noroeste 0 -- -- 64
2019-03-30 20:00:00 11.7 0 Calma 8 Nordeste 0 -- -- 51
2019-03-30 19:00:00 15.5 4 Este 12 Nordeste 0 -- -- 34
2019-03-30 18:00:00 16.4 4 Norte 12 Nordeste 0 -- -- 31
2019-03-30 17:00:00 16.8 5 Nordeste 14 Este 0 -- -- 32
2019-03-30 16:00:00 18.3 5 Norte 19 Sur 0 -- -- 29
2019-03-30 15:00:00 19.2 7 Sur 16 Sur 0 -- -- 30
2019-03-30 14:00:00 17.6 4 Sudeste 17 Sudeste 0 -- -- 38
2019-03-30 13:00:00 17.6 7 Sudeste 16 Este 0 -- -- 39
2019-03-30 12:00:00 15.9 6 Sudeste 15 Sudeste 0 -- -- 41
2019-03-30 11:00:00 13.9 9 Sudeste 17 Sudeste 0 -- -- 48
2019-03-30 10:00:00 11 8 Este 18 Este 0 -- -- 54
2019-03-30 09:00:00 6.7 9 Nordeste 14 Nordeste 0 -- -- 68
2019-03-30 08:00:00 4.5 4 Este 13 Este 0 -- -- 72
2019-03-30 07:00:00 3.4 5 Este 13 Este 0 -- -- 74
2019-03-30 06:00:00 3.1 3 Este 9 Sudeste 0 -- -- 71
2019-03-30 05:00:00 2.7 6 Sudeste 18 Sudeste 0 -- -- 71
2019-03-30 04:00:00 3.2 10 Sudeste 18 Sudeste 0 -- -- 67
2019-03-30 03:00:00 4.2 8 Sur 12 Sur 0 -- -- 60
2019-03-30 02:00:00 3.6 4 Sur 13 Sur 0 -- -- 62
2019-03-30 01:00:00 5.7 8 Sur 15 Sur 0 -- -- 55
2019-03-30 00:00:00 4.9 7 Sudoeste 13 Sur 0 -- -- 59
2019-03-29 23:00:00 7.8 9 Sur 15 Sur 0 -- -- 52
2019-03-29 22:00:00 5.2 4 Noroeste 7 Oeste 0 -- -- 62
2019-03-29 21:00:00 7.5 2 Norte 5 Sudoeste 0 -- -- 55
2019-03-29 20:00:00 9.3 3 Sudoeste 10 Sudoeste 0 -- -- 52
2019-03-29 19:00:00 18.1 7 Sudoeste 15 Sudoeste 0 -- -- 31
2019-03-29 18:00:00 19.8 10 Sudoeste 19 Sudoeste 0 -- -- 26
2019-03-29 17:00:00 19.5 8 Sudoeste 20 Sudoeste 0 -- -- 25
2019-03-29 16:00:00 18.9 12 Oeste 24 Sudoeste 0 -- -- 26
2019-03-29 15:00:00 19.3 12 Sudoeste 29 Sudoeste 0 -- -- 27
2019-03-29 14:00:00 18 16 Sudoeste 30 Sudoeste 0 -- -- 29
2019-03-29 13:00:00 17.4 12 Sur 23 Sudoeste 0 -- -- 32
2019-03-29 12:00:00 15.9 11 Sur 21 Sudoeste 0 -- -- 39
2019-03-29 11:00:00 13.4 13 Sur 21 Sur 0 -- -- 42
2019-03-29 10:00:00 10.7 12 Sudeste 18 Sudeste 0 -- -- 47
2019-03-29 09:00:00 7.3 9 Este 15 Este 0 -- -- 60
2019-03-29 08:00:00 2.6 6 Nordeste 13 Nordeste 0 -- -- 73
2019-03-29 07:00:00 2.1 5 Nordeste 13 Este 0 -- -- 74
2019-03-29 06:00:00 3 6 Este 16 Este 0 -- -- 71
2019-03-29 05:00:00 3.4 6 Este 18 Este 0 -- -- 70
2019-03-29 04:00:00 4.2 9 Este 19 Este 0 -- -- 64
2019-03-29 03:00:00 4.4 9 Este 19 Este 0 -- -- 63
2019-03-29 02:00:00 6 10 Nordeste 26 Este 0 -- -- 60
2019-03-29 01:00:00 6 9 Nordeste 23 Este 0 -- -- 61
2019-03-29 00:00:00 6.6 12 Nordeste 29 Este 0 -- -- 67
2019-03-28 23:00:00 7.9 14 Nordeste 24 Este 0 -- -- 65
2019-03-28 22:00:00 8.5 12 Nordeste 26 Nordeste 0 -- -- 63
2019-03-28 21:00:00 10.5 17 Nordeste 28 Nordeste 0 -- -- 56
2019-03-28 20:00:00 11.9 12 Nordeste 31 Este 0 -- -- 46
2019-03-28 19:00:00 15.8 13 Nordeste 32 Nordeste 0 -- -- 36
2019-03-28 18:00:00 17.7 15 Nordeste 34 Nordeste 0 -- -- 32
2019-03-28 17:00:00 18.2 16 Este 36 Este 0 -- -- 28
2019-03-28 16:00:00 18 17 Este 46 Nordeste 0 -- -- 28
2019-03-28 15:00:00 16.8 17 Este 35 Nordeste 0 -- -- 27
2019-03-28 14:00:00 15.6 14 Este 33 Sudeste 0 -- -- 36
2019-03-28 13:00:00 14 17 Este 33 Este 0 -- -- 37
2019-03-28 12:00:00 11.9 19 Nordeste 37 Este 0 -- -- 47
2019-03-28 11:00:00 10.6 22 Este 48 Nordeste 0 -- -- 47
2019-03-28 10:00:00 8.9 18 Este 33 Nordeste 0 -- -- 54
2019-03-28 09:00:00 6 13 Nordeste 29 Este 0 -- -- 70
2019-03-28 08:00:00 2.4 10 Sudeste 25 Este 0 -- -- 81
2019-03-28 07:00:00 3.1 12 Este 33 Nordeste 0 -- -- 75
2019-03-28 06:00:00 3.3 17 Nordeste 28 Nordeste 0 -- -- 70
2019-03-28 05:00:00 2.8 14 Nordeste 29 Nordeste 0 -- -- 65
2019-03-28 04:00:00 2.8 12 Nordeste 30 Nordeste 0 -- -- 55
2019-03-28 03:00:00 3.4 11 Este 30 Nordeste 0 -- -- 47
2019-03-28 02:00:00 4.6 17 Nordeste 37 Este 0 -- -- 37
2019-03-28 01:00:00 4.9 17 Nordeste 33 Este 0 -- -- 40
2019-03-28 00:00:00 6.1 15 Este 35 Este 0 -- -- 40
2019-03-27 23:00:00 6.7 14 Este 32 Nordeste 0 -- -- 39
2019-03-27 22:00:00 8 10 Este 36 Nordeste 0 -- -- 38
2019-03-27 21:00:00 9 17 Nordeste 31 Nordeste 0 -- -- 42
2019-03-27 20:00:00 10.9 18 Nordeste 33 Nordeste 0 -- -- 39
2019-03-27 19:00:00 14.4 19 Nordeste 42 Nordeste 0 -- -- 34
2019-03-27 18:00:00 16.8 19 Este 46 Este 0 -- -- 26
2019-03-27 17:00:00 17.7 22 Nordeste 44 Nordeste 0 -- -- 21
2019-03-27 16:00:00 17.6 24 Este 49 Este 0 -- -- 20
2019-03-27 15:00:00 17.4 20 Este 38 Nordeste 0 -- -- 19
2019-03-27 14:00:00 16.7 18 Este 39 Este 0 -- -- 21
2019-03-27 13:00:00 15.6 18 Este 41 Nordeste 0 -- -- 23
2019-03-27 12:00:00 14.2 19 Nordeste 45 Nordeste 0 -- -- 26
2019-03-27 11:00:00 11.8 22 Nordeste 39 Nordeste 0 -- -- 30
2019-03-27 10:00:00 9.3 22 Nordeste 39 Nordeste 0 -- -- 40
2019-03-27 09:00:00 6.8 21 Nordeste 35 Nordeste 0 -- -- 51
2019-03-27 08:00:00 3.1 11 Nordeste 22 Este 0 -- -- 67
2019-03-27 07:00:00 1.7 8 Nordeste 18 Este 0 -- -- 74
2019-03-27 06:00:00 1.7 7 Este 28 Nordeste 0 -- -- 74
2019-03-27 05:00:00 2.8 14 Este 31 Este 0 -- -- 71
2019-03-27 04:00:00 3.5 12 Este 27 Nordeste 0 -- -- 67
2019-03-27 03:00:00 2.6 9 Este 21 Nordeste 0 -- -- 67
2019-03-27 02:00:00 3.6 13 Nordeste 27 Nordeste 0 -- -- 57
2019-03-27 01:00:00 3.5 9 Este 32 Este 0 -- -- 53
2019-03-27 00:00:00 4.9 17 Este 45 Nordeste 0 -- -- 45
2019-03-26 23:00:00 5 13 Este 36 Nordeste 0 -- -- 42
2019-03-26 22:00:00 6.4 24 Nordeste 40 Nordeste 0 -- -- 39
2019-03-26 21:00:00 7.5 13 Nordeste 44 Nordeste 0 -- -- 26
2019-03-26 20:00:00 9.5 23 Nordeste 45 Nordeste 0 -- -- 25
2019-03-26 19:00:00 12.4 20 Nordeste 55 Nordeste 0 -- -- 25
2019-03-26 18:00:00 14.6 26 Nordeste 54 Nordeste 0 -- -- 23
2019-03-26 17:00:00 15.8 28 Nordeste 63 Nordeste 0 -- -- 20
2019-03-26 16:00:00 16.2 28 Nordeste 58 Nordeste 0 -- -- 20
2019-03-26 15:00:00 15.7 28 Este 52 Este 0 -- -- 21
2019-03-26 14:00:00 14.6 24 Este 50 Este 0 -- -- 22
2019-03-26 13:00:00 13.9 26 Este 66 Nordeste 0 -- -- 22
2019-03-26 12:00:00 11.8 30 Nordeste 56 Este 0 -- -- 28
2019-03-26 11:00:00 9.7 25 Este 53 Este 0 -- -- 36
2019-03-26 10:00:00 7.6 24 Este 47 Este 0 -- -- 46
2019-03-26 09:00:00 5.5 21 Nordeste 43 Nordeste 0 -- -- 62
2019-03-26 08:00:00 3.4 11 Este 31 Nordeste 0 -- -- 74
2019-03-26 07:00:00 3.3 17 Este 28 Nordeste 0 -- -- 76
2019-03-26 06:00:00 3.6 14 Nordeste 36 Este 0 -- -- 77
2019-03-26 05:00:00 4.1 18 Nordeste 44 Nordeste 0 -- -- 75
2019-03-26 04:00:00 4.4 16 Nordeste 40 Este 0 -- -- 75
2019-03-26 03:00:00 3.5 18 Nordeste 37 Nordeste 0 -- -- 75
2019-03-26 02:00:00 3.1 17 Nordeste 34 Este 0 -- -- 73
2019-03-26 01:00:00 3.4 20 Nordeste 41 Este 0 -- -- 72
2019-03-26 00:00:00 4.1 20 Este 39 Este 0 -- -- 69
2019-03-25 23:00:00 4.5 17 Nordeste 32 Este 0 -- -- 68
2019-03-25 22:00:00 5.6 15 Este 37 Nordeste 0 -- -- 59
2019-03-25 21:00:00 6.6 13 Nordeste 35 Nordeste 0 -- -- 55
2019-03-25 20:00:00 8 15 Nordeste 42 Nordeste 0 -- -- 56
2019-03-25 19:00:00 10.9 22 Nordeste 43 Nordeste 0 -- -- 50
2019-03-25 18:00:00 12.5 25 Nordeste 50 Nordeste 0 -- -- 47
2019-03-25 17:00:00 14 24 Nordeste 46 Nordeste 0 -- -- 45
2019-03-25 16:00:00 14.2 26 Nordeste 46 Nordeste 0 -- -- 45
2019-03-25 15:00:00 14.1 22 Nordeste 43 Este 0 -- -- 43
2019-03-25 14:00:00 14 22 Nordeste 39 Este 0 -- -- 44
2019-03-25 13:00:00 12.8 19 Este 38 Este 0 -- -- 51
2019-03-25 12:00:00 12.2 19 Este 40 Este 0 -- -- 52
2019-03-25 11:00:00 10.8 19 Este 42 Este 0 -- -- 57
2019-03-25 10:00:00 9.4 19 Este 35 Este 0 -- -- 66
2019-03-25 09:00:00 7.3 14 Este 26 Este 0 -- -- 78
2019-03-25 08:00:00 3.6 9 Este 21 Este 0 -- -- 88
2019-03-25 07:00:00 3.1 9 Este 20 Este 0 -- -- 86
2019-03-25 06:00:00 4.1 5 Nordeste 18 Nordeste 0 -- -- 78
2019-03-25 05:00:00 5.2 10 Nordeste 19 Nordeste 0 -- -- 75
2019-03-25 04:00:00 5.3 8 Nordeste 15 Este 0 -- -- 75
2019-03-25 03:00:00 6.4 8 Nordeste 21 Nordeste 0 -- -- 71
2019-03-25 02:00:00 6.6 11 Nordeste 21 Este 0 -- -- 75
2019-03-25 01:00:00 7.2 12 Nordeste 23 Nordeste 0 -- -- 79
2019-03-25 00:00:00 8.3 15 Nordeste 31 Este 0 -- -- 79